Time;durP1;ratioP1;P1;durP2;ratioP2;P2;SDS_P1;SDS_P2;PMS_P1;PMS_P2;Temp;Humidity;BMP_temperature;BMP_pressure;BME280_temperature;BME280_humidity;BME280_pressure;Samples;Min_cycle;Max_cycle;Signal;HPM_P1;HPM_P2
2021/08/30 00:01:44;;;;;;;15.37;12.40;;;;;;;;;;5006703;28;20256;-74
2021/08/30 00:04:11;;;;;;;14.43;12.23;;;;;;;;;;5008130;28;20224;-74
2021/08/30 00:06:37;;;;;;;13.03;11.70;;;;;;;;;;5007549;28;20632;-74
2021/08/30 00:09:05;;;;;;;13.97;11.90;;;;;;;;;;5011567;28;20570;-74
2021/08/30 00:11:32;;;;;;;15.37;12.73;;;;;;;;;;5011938;28;20727;-74
2021/08/30 00:13:59;;;;;;;14.97;13.20;;;;;;;;;;5008422;28;20237;-73
2021/08/30 00:16:25;;;;;;;14.53;13.00;;;;;;;;;;5011654;28;20210;-74
2021/08/30 00:18:52;;;;;;;15.40;13.77;;;;;;;;;;5012219;28;20248;-74
2021/08/30 00:21:18;;;;;;;17.10;14.00;;;;;;;;;;5009491;28;20285;-74
2021/08/30 00:23:44;;;;;;;14.47;12.10;;;;;;;;;;5010928;28;20234;-74
2021/08/30 00:26:11;;;;;;;14.93;13.13;;;;;;;;;;5013127;28;20761;-74
2021/08/30 00:28:40;;;;;;;16.13;14.40;;;;;;;;;;5009861;28;20265;-74
2021/08/30 00:31:06;;;;;;;17.40;13.47;;;;;;;;;;5009331;28;20674;-74
2021/08/30 00:33:33;;;;;;;16.00;13.20;;;;;;;;;;5014059;28;20217;-74
2021/08/30 00:35:59;;;;;;;17.33;14.43;;;;;;;;;;5010906;28;20811;-74
2021/08/30 00:38:26;;;;;;;15.27;13.53;;;;;;;;;;5009750;28;20230;-74
2021/08/30 00:40:52;;;;;;;16.23;14.53;;;;;;;;;;5012104;28;20283;-74
2021/08/30 00:43:19;;;;;;;18.00;15.00;;;;;;;;;;5008567;28;20660;-74
2021/08/30 00:45:47;;;;;;;21.20;14.53;;;;;;;;;;5007830;28;20234;-74
2021/08/30 00:48:13;;;;;;;20.43;15.83;;;;;;;;;;5010646;28;20258;-74
2021/08/30 00:50:40;;;;;;;15.20;13.53;;;;;;;;;;5010906;28;20277;-74
2021/08/30 00:53:06;;;;;;;17.17;15.33;;;;;;;;;;5011746;28;20370;-74
2021/08/30 00:55:33;;;;;;;20.10;15.90;;;;;;;;;;5010976;28;20264;-74
2021/08/30 00:58:00;;;;;;;16.40;13.93;;;;;;;;;;5012384;28;20208;-74
2021/08/30 01:00:26;;;;;;;18.00;15.60;;;;;;;;;;5009703;28;20654;-74
2021/08/30 01:02:54;;;;;;;19.27;15.80;;;;;;;;;;5010758;28;20232;-74
2021/08/30 01:05:21;;;;;;;16.10;14.43;;;;;;;;;;5008224;28;20308;-74
2021/08/30 01:07:57;;;;;;;17.37;14.80;;;;;;;;;;5009351;28;20215;-74
2021/08/30 01:10:29;;;;;;;19.57;15.30;;;;;;;;;;5011787;28;20217;-74
2021/08/30 01:13:00;;;;;;;18.07;15.83;;;;;;;;;;5010269;28;20209;-74
2021/08/30 01:15:31;;;;;;;16.97;15.10;;;;;;;;;;5010678;28;20249;-74
2021/08/30 01:18:02;;;;;;;18.23;15.33;;;;;;;;;;5010916;28;20284;-74
2021/08/30 01:20:33;;;;;;;19.10;14.87;;;;;;;;;;5009519;28;20226;-74
2021/08/30 01:23:01;;;;;;;22.10;14.57;;;;;;;;;;5008468;28;20710;-74
2021/08/30 01:25:31;;;;;;;18.80;15.00;;;;;;;;;;5011102;28;20275;-74
2021/08/30 01:27:58;;;;;;;18.63;14.33;;;;;;;;;;5009603;28;20219;-74
2021/08/30 01:30:26;;;;;;;19.03;14.57;;;;;;;;;;5011053;28;20715;-74
2021/08/30 01:32:57;;;;;;;22.70;14.67;;;;;;;;;;5010582;28;20260;-74
2021/08/30 01:35:26;;;;;;;18.17;14.20;;;;;;;;;;5008961;28;20235;-74
2021/08/30 01:37:56;;;;;;;15.83;13.70;;;;;;;;;;5006792;28;20760;-74
2021/08/30 01:40:26;;;;;;;19.53;14.70;;;;;;;;;;5009141;28;20263;-74
2021/08/30 01:42:54;;;;;;;17.60;14.70;;;;;;;;;;5011122;28;20213;-74
2021/08/30 01:45:23;;;;;;;19.53;15.70;;;;;;;;;;5009608;28;20282;-74
2021/08/30 01:47:52;;;;;;;18.43;15.27;;;;;;;;;;5008016;28;21092;-74
2021/08/30 01:50:21;;;;;;;19.63;15.70;;;;;;;;;;5008213;28;20274;-74
2021/08/30 01:52:50;;;;;;;17.57;14.97;;;;;;;;;;5008095;28;20760;-74
2021/08/30 01:55:26;;;;;;;20.57;15.17;;;;;;;;;;5005674;28;20248;-74
2021/08/30 02:00:43;;;;;;;19.37;16.07;;;;;;;;;;5010651;28;20403;-74
2021/08/30 02:03:10;;;;;;;20.03;16.33;;;;;;;;;;5009734;28;20209;-75
2021/08/30 02:05:38;;;;;;;17.77;14.77;;;;;;;;;;5008352;28;20671;-74
2021/08/30 02:08:05;;;;;;;17.23;15.40;;;;;;;;;;5009313;28;20229;-74
2021/08/30 02:10:32;;;;;;;21.60;16.00;;;;;;;;;;5011557;28;20663;-74
2021/08/30 02:12:58;;;;;;;23.33;16.47;;;;;;;;;;5009061;28;20286;-74
2021/08/30 02:15:24;;;;;;;20.77;15.73;;;;;;;;;;5008400;28;20839;-74
2021/08/30 02:17:56;;;;;;;18.90;16.10;;;;;;;;;;5009707;28;20682;-74
2021/08/30 02:20:27;;;;;;;20.40;16.27;;;;;;;;;;5010969;28;20211;-74
2021/08/30 02:22:56;;;;;;;22.07;17.97;;;;;;;;;;5010968;28;20326;-74
2021/08/30 02:25:23;;;;;;;22.60;17.40;;;;;;;;;;5007701;28;20304;-74
2021/08/30 02:27:55;;;;;;;23.33;17.70;;;;;;;;;;5007758;28;20919;-74
2021/08/30 02:30:23;;;;;;;19.80;17.37;;;;;;;;;;5006518;28;20220;-75
2021/08/30 02:32:52;;;;;;;20.67;17.43;;;;;;;;;;5009252;28;20269;-74
2021/08/30 02:35:21;;;;;;;20.07;17.20;;;;;;;;;;5008339;28;20271;-74
2021/08/30 02:37:50;;;;;;;20.53;17.47;;;;;;;;;;5009556;28;20263;-74
2021/08/30 02:40:19;;;;;;;24.63;18.20;;;;;;;;;;5007489;28;20210;-74
2021/08/30 02:42:47;;;;;;;24.20;18.77;;;;;;;;;;5008893;28;20246;-74
2021/08/30 02:45:15;;;;;;;22.17;18.97;;;;;;;;;;5007844;28;20269;-74
2021/08/30 02:47:42;;;;;;;20.53;17.93;;;;;;;;;;5008604;28;20241;-75
2021/08/30 02:50:11;;;;;;;25.43;18.93;;;;;;;;;;5009811;28;20616;-75
2021/08/30 02:52:39;;;;;;;27.87;19.73;;;;;;;;;;5009803;28;20222;-74
2021/08/30 02:55:07;;;;;;;24.07;18.77;;;;;;;;;;5008654;28;20231;-74
2021/08/30 02:57:36;;;;;;;24.60;18.73;;;;;;;;;;5007623;28;20214;-74
2021/08/30 03:00:03;;;;;;;22.27;19.70;;;;;;;;;;5008187;28;20249;-74
2021/08/30 03:02:31;;;;;;;25.27;18.70;;;;;;;;;;5008594;28;20219;-74
2021/08/30 03:04:59;;;;;;;24.17;18.10;;;;;;;;;;5006937;28;20219;-74
2021/08/30 03:07:27;;;;;;;24.90;17.97;;;;;;;;;;5007170;28;20230;-74
2021/08/30 03:09:54;;;;;;;24.10;18.23;;;;;;;;;;5005862;28;20228;-74
2021/08/30 03:12:21;;;;;;;20.93;18.23;;;;;;;;;;5008693;28;20222;-74
2021/08/30 03:14:50;;;;;;;23.97;18.30;;;;;;;;;;5006989;28;20234;-74
2021/08/30 03:17:18;;;;;;;23.90;19.00;;;;;;;;;;5010764;28;20212;-74
2021/08/30 03:19:47;;;;;;;20.40;17.93;;;;;;;;;;5007487;28;20225;-74
2021/08/30 03:22:16;;;;;;;24.27;17.23;;;;;;;;;;5008820;28;20839;-74
2021/08/30 03:24:43;;;;;;;21.03;17.50;;;;;;;;;;5008274;28;20262;-74
2021/08/30 03:27:10;;;;;;;23.90;17.80;;;;;;;;;;5008552;28;20239;-74
2021/08/30 03:29:39;;;;;;;25.03;18.13;;;;;;;;;;5008179;28;20261;-74
2021/08/30 03:32:09;;;;;;;24.27;17.33;;;;;;;;;;5008496;28;20270;-74
2021/08/30 03:34:36;;;;;;;26.43;19.10;;;;;;;;;;5007288;28;20248;-74
2021/08/30 03:37:04;;;;;;;20.57;18.33;;;;;;;;;;5007588;28;20218;-74
2021/08/30 03:39:31;;;;;;;23.80;19.10;;;;;;;;;;5008052;28;20722;-74
2021/08/30 03:41:58;;;;;;;23.73;17.70;;;;;;;;;;5007577;28;20279;-74
2021/08/30 03:44:25;;;;;;;24.90;19.80;;;;;;;;;;5010116;28;20949;-74
2021/08/30 03:46:52;;;;;;;27.27;20.07;;;;;;;;;;5014558;28;20242;-74
2021/08/30 03:49:22;;;;;;;26.63;20.07;;;;;;;;;;5010404;28;20270;-74
2021/08/30 03:51:49;;;;;;;34.27;20.47;;;;;;;;;;5010736;28;20252;-75
2021/08/30 03:54:15;;;;;;;30.77;21.83;;;;;;;;;;5009729;28;20835;-74
2021/08/30 03:56:43;;;;;;;27.60;21.07;;;;;;;;;;5010746;28;20659;-74
2021/08/30 03:59:10;;;;;;;30.97;22.03;;;;;;;;;;5009880;28;20289;-74
2021/08/30 04:01:40;;;;;;;27.43;21.17;;;;;;;;;;5009285;28;20256;-74
2021/08/30 04:04:13;;;;;;;34.80;23.80;;;;;;;;;;5012980;28;20213;-75
2021/08/30 04:06:42;;;;;;;33.97;23.70;;;;;;;;;;5013869;28;20234;-74
2021/08/30 04:09:08;;;;;;;33.87;24.83;;;;;;;;;;5011578;28;20239;-74
2021/08/30 04:11:35;;;;;;;33.00;24.60;;;;;;;;;;5010949;28;20224;-74
2021/08/30 04:14:01;;;;;;;36.83;23.80;;;;;;;;;;5010241;28;20242;-74
2021/08/30 04:16:28;;;;;;;32.53;23.87;;;;;;;;;;5011309;28;20917;-74
2021/08/30 04:18:54;;;;;;;34.63;25.87;;;;;;;;;;5011638;28;20218;-74
2021/08/30 04:21:20;;;;;;;35.33;25.47;;;;;;;;;;5011977;28;20208;-74
2021/08/30 04:23:48;;;;;;;32.23;24.13;;;;;;;;;;5010482;28;20233;-74
2021/08/30 04:26:14;;;;;;;30.10;23.13;;;;;;;;;;5011691;28;20660;-74
2021/08/30 04:28:41;;;;;;;34.70;23.90;;;;;;;;;;5011784;28;20715;-75
2021/08/30 04:31:07;;;;;;;36.67;26.27;;;;;;;;;;5010292;28;20467;-74
2021/08/30 04:33:34;;;;;;;33.20;23.93;;;;;;;;;;5009890;28;20214;-74
2021/08/30 04:36:00;;;;;;;35.23;24.30;;;;;;;;;;5012303;28;20233;-74
2021/08/30 04:38:27;;;;;;;35.40;25.13;;;;;;;;;;5009992;28;20232;-74
2021/08/30 04:40:54;;;;;;;36.30;24.83;;;;;;;;;;5011526;28;20748;-74
2021/08/30 04:43:21;;;;;;;33.33;24.07;;;;;;;;;;5010387;28;20211;-74
2021/08/30 04:45:47;;;;;;;29.00;22.27;;;;;;;;;;5010740;28;20221;-74
2021/08/30 04:48:14;;;;;;;32.13;22.40;;;;;;;;;;5008318;28;20235;-74
2021/08/30 04:50:40;;;;;;;30.30;22.27;;;;;;;;;;5008632;28;20242;-73
2021/08/30 04:53:07;;;;;;;36.03;23.77;;;;;;;;;;5011122;28;20724;-73
2021/08/30 04:55:33;;;;;;;32.77;22.80;;;;;;;;;;5008810;28;20220;-73
2021/08/30 04:58:02;;;;;;;29.53;21.90;;;;;;;;;;5008329;28;20529;-74
2021/08/30 05:00:28;;;;;;;30.07;23.20;;;;;;;;;;5007935;28;20248;-74
2021/08/30 05:02:55;;;;;;;34.37;24.20;;;;;;;;;;5007949;28;20223;-74
2021/08/30 05:05:21;;;;;;;33.77;24.73;;;;;;;;;;5008789;28;20549;-74
2021/08/30 05:07:47;;;;;;;34.83;24.10;;;;;;;;;;5010055;28;20239;-74
2021/08/30 05:10:14;;;;;;;31.07;22.93;;;;;;;;;;5006139;28;20320;-74
2021/08/30 05:12:40;;;;;;;36.93;23.03;;;;;;;;;;5009229;28;20221;-74
2021/08/30 05:15:09;;;;;;;33.27;22.47;;;;;;;;;;5009031;28;20238;-74
2021/08/30 05:17:36;;;;;;;34.73;23.47;;;;;;;;;;5008445;28;20834;-74
2021/08/30 05:20:02;;;;;;;32.77;24.40;;;;;;;;;;5009338;28;20578;-74
2021/08/30 05:22:29;;;;;;;27.97;21.97;;;;;;;;;;5009335;28;20337;-74
2021/08/30 05:24:55;;;;;;;34.20;23.50;;;;;;;;;;5009535;28;20287;-74
2021/08/30 05:27:22;;;;;;;32.80;23.57;;;;;;;;;;5009325;28;20235;-74
2021/08/30 05:29:49;;;;;;;25.97;22.43;;;;;;;;;;5009422;28;20846;-74
2021/08/30 05:32:16;;;;;;;28.43;22.10;;;;;;;;;;5007362;28;20219;-73
2021/08/30 05:34:43;;;;;;;26.90;21.50;;;;;;;;;;5010682;28;20222;-73
2021/08/30 05:37:09;;;;;;;29.13;21.10;;;;;;;;;;5007874;28;20782;-74
2021/08/30 05:39:35;;;;;;;28.93;22.47;;;;;;;;;;5009806;28;20236;-74
2021/08/30 05:42:02;;;;;;;31.13;21.87;;;;;;;;;;5007767;28;20303;-74
2021/08/30 05:44:28;;;;;;;31.30;23.50;;;;;;;;;;5010277;28;20219;-74
2021/08/30 05:46:55;;;;;;;31.97;22.80;;;;;;;;;;5007253;28;20281;-74
2021/08/30 05:49:23;;;;;;;33.57;23.53;;;;;;;;;;5006798;28;20213;-74
2021/08/30 05:51:49;;;;;;;29.80;21.77;;;;;;;;;;5009204;28;20216;-74
2021/08/30 05:54:16;;;;;;;28.07;20.53;;;;;;;;;;5008738;28;20701;-74
2021/08/30 05:56:42;;;;;;;35.73;22.23;;;;;;;;;;5005945;28;20215;-74
2021/08/30 05:59:09;;;;;;;30.63;21.57;;;;;;;;;;5008844;28;20211;-74
2021/08/30 06:01:36;;;;;;;31.00;22.53;;;;;;;;;;5006158;28;20737;-74
2021/08/30 06:04:03;;;;;;;31.50;21.67;;;;;;;;;;5009545;28;20223;-74
2021/08/30 06:06:30;;;;;;;32.50;21.00;;;;;;;;;;5006953;28;20222;-74
2021/08/30 06:08:57;;;;;;;29.83;20.60;;;;;;;;;;5007263;28;20246;-74
2021/08/30 06:11:23;;;;;;;31.03;22.13;;;;;;;;;;5008672;28;20268;-74
2021/08/30 06:13:50;;;;;;;33.00;20.83;;;;;;;;;;5009397;28;20337;-74
2021/08/30 06:16:16;;;;;;;31.17;21.70;;;;;;;;;;5007538;28;20662;-74
2021/08/30 06:18:43;;;;;;;32.10;20.67;;;;;;;;;;5007505;28;20261;-74
2021/08/30 06:21:09;;;;;;;30.67;19.33;;;;;;;;;;5007317;28;20217;-74
2021/08/30 06:23:37;;;;;;;30.00;20.40;;;;;;;;;;5008114;28;20235;-74
2021/08/30 06:26:03;;;;;;;32.90;20.37;;;;;;;;;;5009164;28;20512;-74
2021/08/30 06:28:30;;;;;;;23.53;18.73;;;;;;;;;;5008122;28;20222;-73
2021/08/30 06:30:57;;;;;;;23.83;17.77;;;;;;;;;;5009192;28;20228;-73
2021/08/30 06:33:23;;;;;;;24.10;18.13;;;;;;;;;;5005376;28;20264;-73
2021/08/30 06:35:50;;;;;;;26.47;18.33;;;;;;;;;;5005141;28;20273;-72
2021/08/30 06:38:17;;;;;;;24.50;17.60;;;;;;;;;;5008342;28;20645;-72
2021/08/30 06:40:45;;;;;;;27.60;19.83;;;;;;;;;;5008388;28;20732;-73
2021/08/30 06:43:11;;;;;;;32.23;18.50;;;;;;;;;;5007194;28;20600;-73
2021/08/30 06:45:37;;;;;;;29.37;19.80;;;;;;;;;;5008704;28;20277;-73
2021/08/30 06:48:04;;;;;;;30.20;18.30;;;;;;;;;;5008210;28;20320;-73
2021/08/30 06:50:31;;;;;;;29.73;18.23;;;;;;;;;;5008053;28;20257;-73
2021/08/30 06:52:57;;;;;;;28.93;18.13;;;;;;;;;;5004202;28;20220;-73
2021/08/30 06:55:24;;;;;;;24.67;17.77;;;;;;;;;;5007307;28;20219;-73
2021/08/30 06:57:51;;;;;;;24.20;18.27;;;;;;;;;;4993355;28;20215;-73
2021/08/30 07:00:18;;;;;;;28.00;18.03;;;;;;;;;;4999032;28;20765;-73
2021/08/30 07:02:45;;;;;;;25.33;17.03;;;;;;;;;;5007119;28;20222;-73
2021/08/30 07:05:12;;;;;;;26.83;17.23;;;;;;;;;;5003230;28;20273;-73
2021/08/30 07:07:38;;;;;;;28.57;17.30;;;;;;;;;;5003488;28;20245;-73
2021/08/30 07:10:06;;;;;;;23.37;17.37;;;;;;;;;;5007220;28;20292;-73
2021/08/30 07:12:32;;;;;;;23.23;17.43;;;;;;;;;;5007285;28;20264;-73
2021/08/30 07:15:00;;;;;;;24.77;18.10;;;;;;;;;;5005053;28;20296;-72
2021/08/30 07:17:27;;;;;;;23.33;16.23;;;;;;;;;;5003254;28;20221;-73
2021/08/30 07:19:53;;;;;;;26.30;17.53;;;;;;;;;;5006266;28;20211;-73
2021/08/30 07:22:19;;;;;;;22.20;15.70;;;;;;;;;;5004757;28;20219;-73
2021/08/30 07:24:46;;;;;;;21.57;16.43;;;;;;;;;;5007731;28;20288;-73
2021/08/30 07:27:12;;;;;;;21.90;16.80;;;;;;;;;;5004687;28;20647;-72
2021/08/30 07:29:39;;;;;;;23.93;17.63;;;;;;;;;;5005700;28;20224;-73
2021/08/30 07:32:08;;;;;;;21.33;16.57;;;;;;;;;;5005002;28;20283;-73
2021/08/30 07:34:34;;;;;;;22.23;16.37;;;;;;;;;;5008791;28;20222;-72
2021/08/30 07:37:01;;;;;;;22.47;16.40;;;;;;;;;;5007124;28;20219;-72
2021/08/30 07:39:27;;;;;;;27.10;16.70;;;;;;;;;;5007923;28;20260;-72
2021/08/30 07:41:54;;;;;;;21.43;17.30;;;;;;;;;;5005030;28;20286;-72
2021/08/30 07:44:21;;;;;;;24.50;15.43;;;;;;;;;;5008306;28;20218;-72
2021/08/30 07:46:48;;;;;;;21.80;16.33;;;;;;;;;;5005124;28;20218;-73
2021/08/30 07:49:16;;;;;;;24.90;17.50;;;;;;;;;;5004555;28;20317;-73
2021/08/30 07:51:43;;;;;;;22.80;16.67;;;;;;;;;;5006197;28;20219;-73
2021/08/30 07:54:10;;;;;;;23.27;16.77;;;;;;;;;;5008151;28;20446;-73
2021/08/30 07:56:40;;;;;;;25.03;16.30;;;;;;;;;;5009219;28;20266;-73
2021/08/30 07:59:06;;;;;;;21.90;16.87;;;;;;;;;;5009199;28;20215;-73
2021/08/30 08:01:32;;;;;;;21.33;16.63;;;;;;;;;;5008185;28;20246;-72
2021/08/30 08:03:59;;;;;;;18.47;16.37;;;;;;;;;;5008557;28;20212;-73
2021/08/30 08:06:26;;;;;;;21.37;15.70;;;;;;;;;;5007434;28;20226;-72
2021/08/30 08:08:53;;;;;;;24.80;15.67;;;;;;;;;;5005536;28;20240;-73
2021/08/30 08:11:19;;;;;;;23.00;15.33;;;;;;;;;;5006307;28;20252;-73
2021/08/30 08:13:46;;;;;;;21.57;15.17;;;;;;;;;;5006664;28;20626;-73
2021/08/30 08:16:12;;;;;;;19.07;15.17;;;;;;;;;;5004574;28;20207;-73
2021/08/30 08:18:39;;;;;;;20.50;15.93;;;;;;;;;;5004238;28;20208;-73
2021/08/30 08:21:07;;;;;;;18.60;15.53;;;;;;;;;;5005153;28;20267;-73
2021/08/30 08:23:36;;;;;;;19.70;15.43;;;;;;;;;;5007363;28;20236;-72
2021/08/30 08:26:03;;;;;;;19.33;13.87;;;;;;;;;;5006376;28;20647;-73
2021/08/30 08:28:29;;;;;;;21.60;15.43;;;;;;;;;;5006512;28;20227;-73
2021/08/30 08:30:56;;;;;;;18.03;14.37;;;;;;;;;;5011217;28;20222;-73
2021/08/30 08:33:22;;;;;;;19.03;13.73;;;;;;;;;;5007897;28;20220;-72
2021/08/30 08:35:49;;;;;;;20.07;13.87;;;;;;;;;;5009502;28;21013;-72
2021/08/30 08:38:15;;;;;;;20.53;13.90;;;;;;;;;;5012003;28;20234;-72
2021/08/30 08:40:43;;;;;;;16.00;13.53;;;;;;;;;;5008967;28;20220;-72
2021/08/30 08:43:13;;;;;;;17.40;13.67;;;;;;;;;;5010176;28;20676;-72
2021/08/30 08:45:41;;;;;;;21.63;14.13;;;;;;;;;;5013264;28;20216;-74
2021/08/30 08:48:08;;;;;;;18.67;14.47;;;;;;;;;;5012599;28;20291;-75
2021/08/30 08:50:34;;;;;;;17.50;13.70;;;;;;;;;;5009647;28;20209;-72
2021/08/30 08:53:04;;;;;;;18.23;13.30;;;;;;;;;;5008118;28;20273;-73
2021/08/30 08:55:33;;;;;;;18.33;14.10;;;;;;;;;;5008197;28;20244;-73
2021/08/30 08:58:03;;;;;;;19.27;13.60;;;;;;;;;;5011989;28;20212;-72
2021/08/30 09:00:29;;;;;;;14.23;12.47;;;;;;;;;;5010368;28;20266;-73
2021/08/30 09:02:56;;;;;;;21.63;12.43;;;;;;;;;;5010467;28;20216;-74
2021/08/30 09:05:24;;;;;;;17.03;11.83;;;;;;;;;;5008545;28;20219;-73
2021/08/30 09:07:52;;;;;;;17.43;12.33;;;;;;;;;;5010354;28;20219;-73
2021/08/30 09:10:23;;;;;;;15.23;11.83;;;;;;;;;;5010720;28;20306;-73
2021/08/30 09:12:50;;;;;;;22.87;12.80;;;;;;;;;;5010050;28;20294;-73
2021/08/30 09:15:20;;;;;;;13.57;12.03;;;;;;;;;;5010251;28;20251;-73
2021/08/30 09:17:49;;;;;;;20.43;11.30;;;;;;;;;;5007096;28;20703;-73
2021/08/30 09:20:17;;;;;;;17.33;11.47;;;;;;;;;;5010532;28;20219;-73
2021/08/30 09:22:43;;;;;;;13.90;11.40;;;;;;;;;;5009025;28;20215;-73
2021/08/30 09:25:11;;;;;;;13.87;11.80;;;;;;;;;;5007793;28;20265;-73
2021/08/30 09:27:40;;;;;;;16.70;11.77;;;;;;;;;;5009213;28;20834;-73
2021/08/30 09:30:11;;;;;;;14.03;11.37;;;;;;;;;;5009237;28;20313;-74
2021/08/30 09:32:40;;;;;;;15.23;11.47;;;;;;;;;;5008237;28;20302;-74
2021/08/30 09:35:08;;;;;;;13.87;11.57;;;;;;;;;;5006409;28;20218;-74
2021/08/30 09:37:38;;;;;;;18.00;10.80;;;;;;;;;;5007945;28;20225;-74
2021/08/30 09:40:06;;;;;;;13.13;10.30;;;;;;;;;;5007961;28;20224;-74
2021/08/30 09:42:33;;;;;;;12.07;9.97;;;;;;;;;;5008565;28;20296;-74
2021/08/30 09:45:09;;;;;;;14.80;11.13;;;;;;;;;;5008409;28;20230;-74
2021/08/30 09:47:35;;;;;;;14.20;10.27;;;;;;;;;;5008098;28;20464;-72
2021/08/30 09:50:09;;;;;;;10.33;9.07;;;;;;;;;;5009039;28;20267;-72
2021/08/30 09:52:36;;;;;;;11.43;9.17;;;;;;;;;;5009640;28;20218;-72
2021/08/30 09:55:02;;;;;;;9.67;8.57;;;;;;;;;;5006732;28;20259;-73
2021/08/30 09:57:29;;;;;;;12.90;8.53;;;;;;;;;;5006359;28;20213;-73
2021/08/30 09:59:56;;;;;;;10.07;7.93;;;;;;;;;;5007272;28;20266;-73
2021/08/30 10:02:29;;;;;;;9.90;8.90;;;;;;;;;;5006993;28;20214;-72
2021/08/30 10:04:55;;;;;;;10.43;8.27;;;;;;;;;;5007886;28;20276;-72
2021/08/30 10:07:23;;;;;;;12.30;8.67;;;;;;;;;;5011444;28;20572;-73
2021/08/30 10:09:51;;;;;;;13.33;9.30;;;;;;;;;;5009335;28;20640;-73
2021/08/30 10:12:17;;;;;;;9.63;8.53;;;;;;;;;;5006555;28;20780;-73
2021/08/30 10:14:44;;;;;;;10.33;9.27;;;;;;;;;;5007890;28;20272;-73
2021/08/30 10:17:10;;;;;;;11.30;9.50;;;;;;;;;;5008091;28;20217;-73
2021/08/30 10:19:40;;;;;;;11.00;9.60;;;;;;;;;;5007741;28;20220;-73
2021/08/30 10:22:16;;;;;;;10.00;9.00;;;;;;;;;;5007693;28;20217;-73
2021/08/30 10:24:45;;;;;;;9.50;8.50;;;;;;;;;;5008581;28;20231;-73
2021/08/30 10:27:12;;;;;;;14.33;8.57;;;;;;;;;;5006718;28;20212;-73
2021/08/30 10:29:41;;;;;;;10.63;9.27;;;;;;;;;;5008006;28;20715;-73
2021/08/30 10:32:19;;;;;;;12.33;9.40;;;;;;;;;;5008987;28;20221;-73
2021/08/30 10:34:46;;;;;;;10.73;9.27;;;;;;;;;;5009648;28;20600;-73
2021/08/30 10:37:18;;;;;;;11.90;8.87;;;;;;;;;;5007283;28;20211;-73
2021/08/30 10:39:51;;;;;;;12.47;8.23;;;;;;;;;;5007709;28;20541;-73
2021/08/30 10:42:18;;;;;;;10.60;8.57;;;;;;;;;;5006145;28;20305;-73
2021/08/30 10:44:54;;;;;;;9.27;8.37;;;;;;;;;;5005335;28;20745;-73
2021/08/30 10:47:24;;;;;;;10.87;7.87;;;;;;;;;;5006410;28;20291;-73
2021/08/30 10:49:51;;;;;;;8.83;8.03;;;;;;;;;;5007845;28;20237;-73
2021/08/30 10:52:20;;;;;;;10.00;8.10;;;;;;;;;;5009881;28;20219;-73
2021/08/30 10:54:52;;;;;;;11.40;7.53;;;;;;;;;;5008598;28;20683;-73
2021/08/30 10:57:19;;;;;;;10.57;6.80;;;;;;;;;;5006930;28;20267;-73
2021/08/30 10:59:47;;;;;;;8.00;7.20;;;;;;;;;;5007283;28;20218;-73
2021/08/30 11:02:14;;;;;;;9.80;7.20;;;;;;;;;;5007500;28;20233;-73
2021/08/30 11:04:41;;;;;;;7.67;6.83;;;;;;;;;;5008211;28;20737;-73
2021/08/30 11:07:08;;;;;;;8.80;6.93;;;;;;;;;;5009243;28;20224;-73
2021/08/30 11:09:35;;;;;;;8.10;6.87;;;;;;;;;;5005105;28;20672;-73
2021/08/30 11:12:10;;;;;;;8.73;7.93;;;;;;;;;;5005780;28;20215;-74
2021/08/30 11:14:36;;;;;;;9.20;7.20;;;;;;;;;;5009062;28;20247;-75
2021/08/30 11:17:04;;;;;;;6.93;6.00;;;;;;;;;;5009537;28;20240;-75
2021/08/30 11:19:30;;;;;;;7.17;6.50;;;;;;;;;;5005804;28;20218;-74
2021/08/30 11:21:58;;;;;;;6.67;6.07;;;;;;;;;;5007174;28;20275;-74
2021/08/30 11:24:27;;;;;;;7.30;6.60;;;;;;;;;;5005507;28;21256;-74
2021/08/30 11:26:55;;;;;;;6.33;5.70;;;;;;;;;;5006184;28;20631;-73
2021/08/30 11:29:24;;;;;;;8.50;5.03;;;;;;;;;;5006062;28;20628;-73
2021/08/30 11:31:51;;;;;;;6.83;6.13;;;;;;;;;;5005062;28;20239;-73
2021/08/30 11:34:29;;;;;;;7.60;6.10;;;;;;;;;;5007412;28;20218;-74
2021/08/30 11:36:57;;;;;;;6.90;5.87;;;;;;;;;;5008464;28;20213;-73
2021/08/30 11:39:24;;;;;;;7.10;6.40;;;;;;;;;;5006622;28;20231;-74
2021/08/30 11:41:54;;;;;;;6.60;5.97;;;;;;;;;;5005389;28;20258;-73
2021/08/30 11:44:21;;;;;;;6.93;5.93;;;;;;;;;;5003647;28;20257;-73
2021/08/30 11:46:51;;;;;;;5.67;5.17;;;;;;;;;;5005935;28;20224;-73
2021/08/30 11:49:18;;;;;;;4.73;4.33;;;;;;;;;;5006392;28;20249;-73
2021/08/30 11:51:47;;;;;;;6.77;4.67;;;;;;;;;;5006247;28;20281;-73
2021/08/30 11:54:15;;;;;;;6.03;4.88;;;;;;;;;;5003319;28;20518;-72
2021/08/30 11:56:42;;;;;;;5.30;4.80;;;;;;;;;;5002943;28;20445;-72
2021/08/30 11:59:08;;;;;;;6.00;5.50;;;;;;;;;;5003089;28;20206;-72
2021/08/30 12:01:39;;;;;;;8.33;5.83;;;;;;;;;;5005529;28;20280;-73
2021/08/30 12:04:17;;;;;;;5.93;5.33;;;;;;;;;;5008906;28;20219;-73
2021/08/30 12:06:48;;;;;;;6.30;5.60;;;;;;;;;;5009867;28;20290;-73
2021/08/30 12:09:15;;;;;;;6.53;5.47;;;;;;;;;;5009898;28;20253;-74
2021/08/30 12:11:46;;;;;;;6.40;5.80;;;;;;;;;;5010497;28;20231;-74
2021/08/30 12:14:12;;;;;;;7.37;6.20;;;;;;;;;;5009702;28;20246;-74
2021/08/30 12:16:39;;;;;;;6.60;5.90;;;;;;;;;;5008706;28;20579;-74
2021/08/30 12:19:08;;;;;;;6.80;5.60;;;;;;;;;;5014049;28;20886;-74
2021/08/30 12:21:38;;;;;;;6.60;5.80;;;;;;;;;;5009297;28;20223;-74
2021/08/30 12:24:05;;;;;;;5.90;5.40;;;;;;;;;;5008071;28;20714;-75
2021/08/30 12:26:32;;;;;;;5.70;5.20;;;;;;;;;;5011029;28;20219;-74
2021/08/30 12:29:00;;;;;;;10.37;5.57;;;;;;;;;;5009062;28;20553;-75
2021/08/30 12:31:30;;;;;;;5.90;5.30;;;;;;;;;;5007119;28;20207;-75
2021/08/30 12:34:05;;;;;;;5.53;4.97;;;;;;;;;;5008305;28;20226;-75
2021/08/30 12:36:32;;;;;;;5.60;5.07;;;;;;;;;;5008340;28;20296;-75
2021/08/30 12:38:59;;;;;;;6.80;5.20;;;;;;;;;;5009220;28;20235;-76
2021/08/30 12:41:26;;;;;;;5.40;4.90;;;;;;;;;;5008750;28;20273;-75
2021/08/30 12:43:53;;;;;;;7.17;5.23;;;;;;;;;;5008511;28;20635;-74
2021/08/30 12:46:19;;;;;;;6.30;4.80;;;;;;;;;;5006575;28;20218;-74
2021/08/30 12:48:46;;;;;;;7.43;6.43;;;;;;;;;;5007957;28;20223;-75
2021/08/30 12:51:13;;;;;;;8.27;5.63;;;;;;;;;;5009429;28;20234;-74
2021/08/30 12:53:40;;;;;;;6.78;6.07;;;;;;;;;;5008513;28;20445;-75
2021/08/30 12:56:08;;;;;;;7.27;5.80;;;;;;;;;;5008125;28;20670;-75
2021/08/30 12:58:35;;;;;;;8.13;7.33;;;;;;;;;;5008274;28;20261;-75
2021/08/30 13:01:01;;;;;;;7.63;6.70;;;;;;;;;;5009241;28;20296;-75
2021/08/30 13:03:28;;;;;;;10.30;7.50;;;;;;;;;;5009678;28;20218;-75
2021/08/30 13:05:55;;;;;;;9.37;6.83;;;;;;;;;;5007276;28;20274;-76
2021/08/30 13:08:21;;;;;;;8.70;6.63;;;;;;;;;;5010312;28;20595;-76
2021/08/30 13:10:50;;;;;;;10.43;6.77;;;;;;;;;;5010402;28;20293;-76
2021/08/30 13:13:19;;;;;;;9.10;7.13;;;;;;;;;;5011280;28;20215;-76
2021/08/30 13:15:47;;;;;;;7.73;6.90;;;;;;;;;;5007804;28;20231;-75
2021/08/30 13:18:13;;;;;;;9.03;7.23;;;;;;;;;;5009598;28;20224;-76
2021/08/30 13:20:42;;;;;;;9.33;6.70;;;;;;;;;;5009547;28;20325;-76
2021/08/30 13:23:09;;;;;;;8.47;6.83;;;;;;;;;;5006114;28;20226;-77
2021/08/30 13:25:36;;;;;;;8.17;6.80;;;;;;;;;;5006788;28;20621;-77
2021/08/30 13:28:03;;;;;;;9.13;7.27;;;;;;;;;;5008662;28;20722;-75
2021/08/30 13:30:31;;;;;;;7.30;6.47;;;;;;;;;;5009327;28;20297;-75
2021/08/30 13:32:57;;;;;;;8.67;6.53;;;;;;;;;;5007075;28;20274;-76
2021/08/30 13:35:24;;;;;;;10.57;6.90;;;;;;;;;;5008721;28;20779;-75
2021/08/30 13:37:55;;;;;;;6.77;5.40;;;;;;;;;;5006183;28;20266;-76
2021/08/30 13:40:22;;;;;;;6.77;5.10;;;;;;;;;;5007043;28;20310;-75
2021/08/30 13:42:48;;;;;;;7.90;6.03;;;;;;;;;;5009030;28;20212;-76
2021/08/30 13:45:15;;;;;;;8.40;5.77;;;;;;;;;;5007913;28;20220;-75
2021/08/30 13:47:44;;;;;;;7.70;6.27;;;;;;;;;;5008188;28;20762;-75
2021/08/30 13:50:12;;;;;;;8.20;5.90;;;;;;;;;;5007610;28;20238;-74
2021/08/30 13:52:39;;;;;;;9.77;6.10;;;;;;;;;;5010547;28;20219;-75
2021/08/30 13:55:07;;;;;;;7.60;6.07;;;;;;;;;;5007384;28;20297;-75
2021/08/30 13:57:33;;;;;;;6.83;5.63;;;;;;;;;;5009314;28;20617;-75
2021/08/30 14:00:00;;;;;;;13.13;7.23;;;;;;;;;;5008384;28;20243;-75
2021/08/30 14:02:26;;;;;;;9.77;6.83;;;;;;;;;;5008678;28;20250;-76
2021/08/30 14:04:54;;;;;;;8.17;6.73;;;;;;;;;;5008349;28;20292;-76
2021/08/30 14:07:20;;;;;;;11.50;6.83;;;;;;;;;;5006989;28;20215;-75
2021/08/30 14:09:46;;;;;;;8.67;6.43;;;;;;;;;;5009680;28;20242;-73
2021/08/30 14:12:13;;;;;;;6.97;6.28;;;;;;;;;;5007729;28;20477;-71
2021/08/30 14:14:39;;;;;;;9.77;6.33;;;;;;;;;;5009725;28;20755;-70
2021/08/30 14:17:06;;;;;;;10.87;6.30;;;;;;;;;;5010115;28;20215;-71
2021/08/30 14:19:32;;;;;;;8.00;6.83;;;;;;;;;;5007968;28;20218;-71
2021/08/30 14:22:00;;;;;;;11.90;6.37;;;;;;;;;;5008952;28;20222;-71
2021/08/30 14:24:26;;;;;;;8.20;6.30;;;;;;;;;;5007586;28;20269;-71
2021/08/30 14:26:53;;;;;;;10.30;7.10;;;;;;;;;;5009192;28;20221;-71
2021/08/30 14:29:20;;;;;;;10.87;7.77;;;;;;;;;;5005943;28;20259;-72